Time;durP1;ratioP1;P1;durP2;ratioP2;P2;SDS_P1;SDS_P2;PMS_P1;PMS_P2;Temp;Humidity;BMP_temperature;BMP_pressure;BME280_temperature;BME280_humidity;BME280_pressure;Samples;Min_cycle;Max_cycle;Signal;HPM_P1;HPM_P2
2024/01/16 00:02:20;;;;;;;0.70;0.13;;;;;;;;;;5037522;28;20461;-63
2024/01/16 00:04:46;;;;;;;0.45;0.15;;;;;;;;;;5020856;28;20164;-63
2024/01/16 00:07:12;;;;;;;0.52;0.30;;;;;;;;;;5036334;28;20407;-63
2024/01/16 00:09:38;;;;;;;1.90;0.40;;;;;;;;;;5018649;28;20064;-63
2024/01/16 00:12:04;;;;;;;1.27;0.20;;;;;;;;;;5039172;28;20083;-63
2024/01/16 00:14:30;;;;;;;0.30;0.10;;;;;;;;;;5035436;28;20042;-63
2024/01/16 00:16:56;;;;;;;0.15;0.10;;;;;;;;;;5033594;28;20044;-63
2024/01/16 00:19:22;;;;;;;1.80;0.20;;;;;;;;;;5030339;28;20577;-63
2024/01/16 00:21:48;;;;;;;1.17;0.43;;;;;;;;;;5031864;28;20045;-63
2024/01/16 00:24:14;;;;;;;0.20;0.10;;;;;;;;;;5013794;28;20044;-63
2024/01/16 00:26:40;;;;;;;0.47;0.08;;;;;;;;;;5017422;28;20124;-63
2024/01/16 00:29:06;;;;;;;0.65;0.10;;;;;;;;;;5034767;28;20064;-63
2024/01/16 00:31:32;;;;;;;0.00;0.00;;;;;;;;;;5029862;28;20512;-63
2024/01/16 00:33:58;;;;;;;0.43;0.00;;;;;;;;;;5029450;28;20041;-63
2024/01/16 00:36:24;;;;;;;0.68;0.00;;;;;;;;;;5030800;28;20103;-63
2024/01/16 00:38:50;;;;;;;0.10;0.10;;;;;;;;;;5032539;28;20041;-63
2024/01/16 00:41:17;;;;;;;0.00;0.00;;;;;;;;;;5034787;28;20128;-63
2024/01/16 00:43:46;;;;;;;0.00;0.00;;;;;;;;;;5015196;28;20594;-63
2024/01/16 00:46:12;;;;;;;0.08;0.08;;;;;;;;;;5032653;28;20064;-63
2024/01/16 00:48:38;;;;;;;0.00;0.00;;;;;;;;;;5017643;28;20513;-63
2024/01/16 00:51:04;;;;;;;0.00;0.00;;;;;;;;;;5035777;28;20033;-63
2024/01/16 00:53:30;;;;;;;0.00;0.00;;;;;;;;;;5032808;28;20037;-63
2024/01/16 00:55:56;;;;;;;0.00;0.00;;;;;;;;;;5034079;28;20078;-63
2024/01/16 00:58:22;;;;;;;0.00;0.00;;;;;;;;;;5033252;28;20783;-63
2024/01/16 01:00:49;;;;;;;0.10;0.00;;;;;;;;;;5032501;28;20112;-63
2024/01/16 01:03:15;;;;;;;0.00;0.00;;;;;;;;;;5033553;28;20044;-63
2024/01/16 01:05:41;;;;;;;0.00;0.00;;;;;;;;;;5034009;28;20491;-63
2024/01/16 01:08:07;;;;;;;0.30;0.00;;;;;;;;;;5018036;28;20060;-64
2024/01/16 01:10:33;;;;;;;0.00;0.00;;;;;;;;;;5036132;28;20056;-63
2024/01/16 01:12:59;;;;;;;0.08;0.00;;;;;;;;;;5031741;28;20049;-63
2024/01/16 01:15:25;;;;;;;0.00;0.00;;;;;;;;;;5029895;28;20049;-63
2024/01/16 01:17:52;;;;;;;0.00;0.00;;;;;;;;;;5011279;28;20410;-63
2024/01/16 01:20:18;;;;;;;0.00;0.00;;;;;;;;;;5036631;28;20529;-64
2024/01/16 01:22:45;;;;;;;0.00;0.00;;;;;;;;;;5014114;28;20084;-63
2024/01/16 01:25:11;;;;;;;0.00;0.00;;;;;;;;;;5029847;28;20045;-63
2024/01/16 01:27:38;;;;;;;1.40;0.00;;;;;;;;;;5030508;28;20044;-63
2024/01/16 01:30:04;;;;;;;0.00;0.00;;;;;;;;;;5029163;28;20041;-63
2024/01/16 01:32:30;;;;;;;0.10;0.10;;;;;;;;;;5030710;28;20046;-63
2024/01/16 01:34:56;;;;;;;0.55;0.10;;;;;;;;;;5032586;28;20104;-63
2024/01/16 01:37:22;;;;;;;0.50;0.20;;;;;;;;;;5030778;28;20052;-63
2024/01/16 01:39:48;;;;;;;0.30;0.08;;;;;;;;;;5030888;28;20082;-63
2024/01/16 01:42:15;;;;;;;0.60;0.10;;;;;;;;;;5032436;28;20037;-63
2024/01/16 01:44:42;;;;;;;0.15;0.10;;;;;;;;;;5032083;28;20490;-63
2024/01/16 01:47:08;;;;;;;0.68;0.10;;;;;;;;;;5037666;28;20501;-63
2024/01/16 01:49:35;;;;;;;1.88;0.10;;;;;;;;;;5039798;28;20136;-63
2024/01/16 01:52:01;;;;;;;0.10;0.10;;;;;;;;;;5036618;28;20111;-63
2024/01/16 01:54:27;;;;;;;0.60;0.08;;;;;;;;;;5036022;28;20043;-63
2024/01/16 01:56:53;;;;;;;0.40;0.40;;;;;;;;;;5040105;28;20056;-63
2024/01/16 01:59:20;;;;;;;0.80;0.10;;;;;;;;;;5040307;28;20119;-63
2024/01/16 02:01:47;;;;;;;0.40;0.20;;;;;;;;;;5037390;28;20045;-63
2024/01/16 02:04:15;;;;;;;0.10;0.10;;;;;;;;;;5033388;28;20510;-63
2024/01/16 02:06:44;;;;;;;0.15;0.10;;;;;;;;;;5038232;28;20117;-63
2024/01/16 02:09:13;;;;;;;0.10;0.00;;;;;;;;;;5036137;28;20045;-63
2024/01/16 02:11:41;;;;;;;0.00;0.00;;;;;;;;;;5039720;28;20057;-63
2024/01/16 02:14:07;;;;;;;0.00;0.00;;;;;;;;;;5034528;28;20128;-63
2024/01/16 02:16:40;;;;;;;0.00;0.00;;;;;;;;;;5039376;28;20041;-63
2024/01/16 02:19:07;;;;;;;0.00;0.00;;;;;;;;;;5035353;28;20044;-63
2024/01/16 02:21:40;;;;;;;0.00;0.00;;;;;;;;;;5033881;28;20119;-63
2024/01/16 02:24:06;;;;;;;0.00;0.00;;;;;;;;;;5036454;28;20056;-63
2024/01/16 02:26:33;;;;;;;0.00;0.00;;;;;;;;;;5034651;28;20045;-63
2024/01/16 02:29:02;;;;;;;0.10;0.10;;;;;;;;;;5018152;28;20048;-63
2024/01/16 02:31:28;;;;;;;0.22;0.05;;;;;;;;;;5032454;28;20048;-63
2024/01/16 02:33:54;;;;;;;0.20;0.00;;;;;;;;;;5036650;28;20041;-63
2024/01/16 02:36:20;;;;;;;0.40;0.00;;;;;;;;;;5038686;28;20132;-63
2024/01/16 02:38:46;;;;;;;0.40;0.10;;;;;;;;;;5032257;28;20029;-63
2024/01/16 02:41:14;;;;;;;0.05;0.00;;;;;;;;;;5037846;28;20037;-63
2024/01/16 02:43:40;;;;;;;0.50;0.10;;;;;;;;;;5018004;28;20191;-63
2024/01/16 02:46:06;;;;;;;1.05;0.60;;;;;;;;;;5038758;28;20123;-63
2024/01/16 02:48:31;;;;;;;1.02;0.10;;;;;;;;;;5038221;28;20044;-63
2024/01/16 02:50:57;;;;;;;1.08;0.13;;;;;;;;;;5038397;28;20033;-63
2024/01/16 02:53:25;;;;;;;0.82;0.20;;;;;;;;;;5031568;28;20045;-63
2024/01/16 02:55:51;;;;;;;0.43;0.28;;;;;;;;;;5031670;28;20146;-63
2024/01/16 02:58:17;;;;;;;0.68;0.20;;;;;;;;;;5035069;28;20049;-63
2024/01/16 03:00:43;;;;;;;0.47;0.20;;;;;;;;;;5036814;28;20044;-63
2024/01/16 03:03:11;;;;;;;0.75;0.20;;;;;;;;;;5037025;28;20044;-63
2024/01/16 03:05:37;;;;;;;0.20;0.10;;;;;;;;;;5037477;28;20041;-63
2024/01/16 03:08:03;;;;;;;0.10;0.10;;;;;;;;;;5037819;28;20045;-64
2024/01/16 03:10:29;;;;;;;1.85;0.50;;;;;;;;;;5045218;28;20044;-64
2024/01/16 03:12:55;;;;;;;1.00;0.13;;;;;;;;;;5043305;28;20056;-63
2024/01/16 03:15:21;;;;;;;1.23;0.13;;;;;;;;;;5037354;28;20041;-63
2024/01/16 03:17:47;;;;;;;0.20;0.10;;;;;;;;;;5034056;28;20037;-63
2024/01/16 03:20:13;;;;;;;1.58;0.17;;;;;;;;;;5036338;28;20110;-63
2024/01/16 03:22:39;;;;;;;2.38;0.25;;;;;;;;;;5036444;28;20470;-63
2024/01/16 03:25:06;;;;;;;0.20;0.10;;;;;;;;;;5033127;28;20464;-63
2024/01/16 03:27:32;;;;;;;0.22;0.20;;;;;;;;;;5036246;28;20044;-63
2024/01/16 03:29:58;;;;;;;1.85;0.57;;;;;;;;;;5037721;28;20043;-63
2024/01/16 03:32:24;;;;;;;0.55;0.30;;;;;;;;;;5033546;28;20041;-63
2024/01/16 03:34:50;;;;;;;0.93;0.10;;;;;;;;;;5034102;28;20040;-63
2024/01/16 03:37:16;;;;;;;0.70;0.22;;;;;;;;;;5030573;28;20282;-63
2024/01/16 03:39:44;;;;;;;1.88;0.30;;;;;;;;;;5018112;28;20051;-63
2024/01/16 03:42:11;;;;;;;2.03;0.20;;;;;;;;;;5023451;28;20182;-63
2024/01/16 03:44:41;;;;;;;1.83;0.65;;;;;;;;;;5038002;28;20495;-63
2024/01/16 03:47:07;;;;;;;2.28;0.30;;;;;;;;;;5040297;28;20480;-64
2024/01/16 03:49:33;;;;;;;1.70;0.30;;;;;;;;;;5020677;28;20491;-63
2024/01/16 03:51:59;;;;;;;1.17;0.30;;;;;;;;;;5039935;28;20140;-63
2024/01/16 03:54:25;;;;;;;2.53;0.25;;;;;;;;;;5035540;28;20127;-63
2024/01/16 03:56:51;;;;;;;0.90;0.30;;;;;;;;;;5036407;28;20029;-63
2024/01/16 03:59:17;;;;;;;1.30;0.30;;;;;;;;;;5040309;28;20052;-63
2024/01/16 04:01:45;;;;;;;0.77;0.22;;;;;;;;;;5037271;28;20047;-64
2024/01/16 04:04:11;;;;;;;0.38;0.20;;;;;;;;;;5038492;28;20053;-63
2024/01/16 04:06:37;;;;;;;0.40;0.10;;;;;;;;;;5039084;28;20041;-63
2024/01/16 04:09:04;;;;;;;0.30;0.10;;;;;;;;;;5038250;28;20040;-63
2024/01/16 04:11:30;;;;;;;0.93;0.30;;;;;;;;;;5036215;28;20049;-63
2024/01/16 04:13:56;;;;;;;1.38;0.10;;;;;;;;;;5019870;28;20774;-63
2024/01/16 04:16:23;;;;;;;1.40;0.20;;;;;;;;;;5038798;28;20423;-63
2024/01/16 04:18:49;;;;;;;0.40;0.10;;;;;;;;;;5037660;28;20043;-63
2024/01/16 04:21:15;;;;;;;5.25;0.47;;;;;;;;;;5040901;28;20037;-63
2024/01/16 04:23:42;;;;;;;1.15;0.32;;;;;;;;;;5034355;28;20076;-63
2024/01/16 04:26:08;;;;;;;3.45;0.60;;;;;;;;;;5040107;28;20047;-63
2024/01/16 04:28:36;;;;;;;2.03;0.50;;;;;;;;;;5044205;28;20457;-63
2024/01/16 04:31:02;;;;;;;1.05;0.20;;;;;;;;;;5036769;28;20118;-63
2024/01/16 04:33:28;;;;;;;1.02;0.28;;;;;;;;;;5016680;28;20049;-63
2024/01/16 04:35:55;;;;;;;2.15;0.52;;;;;;;;;;5016262;28;20064;-63
2024/01/16 04:38:21;;;;;;;2.75;0.50;;;;;;;;;;5034784;28;20487;-63
2024/01/16 04:40:47;;;;;;;0.57;0.17;;;;;;;;;;5032355;28;20037;-64
2024/01/16 04:43:13;;;;;;;1.42;0.22;;;;;;;;;;5032937;28;20044;-63
2024/01/16 04:45:39;;;;;;;0.15;0.15;;;;;;;;;;5013487;28;20095;-63
2024/01/16 04:48:05;;;;;;;1.10;0.20;;;;;;;;;;5035576;28;20538;-63
2024/01/16 04:50:31;;;;;;;0.40;0.13;;;;;;;;;;5036104;28;20049;-64
2024/01/16 04:52:59;;;;;;;0.50;0.10;;;;;;;;;;5033315;28;20125;-63
2024/01/16 04:55:25;;;;;;;0.63;0.17;;;;;;;;;;5033512;28;20083;-63
2024/01/16 04:57:51;;;;;;;0.70;0.20;;;;;;;;;;5028084;28;20039;-63
2024/01/16 05:00:17;;;;;;;0.17;0.10;;;;;;;;;;5038014;28;20426;-63
2024/01/16 05:02:43;;;;;;;0.38;0.10;;;;;;;;;;5017359;28;20102;-64
2024/01/16 05:05:09;;;;;;;0.00;0.00;;;;;;;;;;5036034;28;20048;-63
2024/01/16 05:07:35;;;;;;;0.30;0.00;;;;;;;;;;5036359;28;20045;-63
2024/01/16 05:10:02;;;;;;;0.00;0.00;;;;;;;;;;5018736;28;20080;-63
2024/01/16 05:12:28;;;;;;;0.05;0.00;;;;;;;;;;5035227;28;20044;-64
2024/01/16 05:14:54;;;;;;;0.45;0.10;;;;;;;;;;5037694;28;20040;-64
2024/01/16 05:17:20;;;;;;;1.90;0.30;;;;;;;;;;5036358;28;20048;-63
2024/01/16 05:19:46;;;;;;;1.27;0.20;;;;;;;;;;5024785;28;20045;-63
2024/01/16 05:22:12;;;;;;;2.30;0.43;;;;;;;;;;5042969;28;20087;-63
2024/01/16 05:24:38;;;;;;;1.55;0.17;;;;;;;;;;5040806;28;20041;-63
2024/01/16 05:27:08;;;;;;;1.05;0.40;;;;;;;;;;5037942;28;20093;-64
2024/01/16 05:29:37;;;;;;;0.75;0.20;;;;;;;;;;5039890;28;20214;-63
2024/01/16 05:32:03;;;;;;;2.83;0.55;;;;;;;;;;5038330;28;20053;-63
2024/01/16 05:34:29;;;;;;;2.72;0.82;;;;;;;;;;5037184;28;20041;-63
2024/01/16 05:36:56;;;;;;;1.27;0.38;;;;;;;;;;5040224;28;20042;-63
2024/01/16 05:39:22;;;;;;;1.88;0.63;;;;;;;;;;5038690;28;20499;-63
2024/01/16 05:41:48;;;;;;;2.67;0.30;;;;;;;;;;5033222;28;20040;-63
2024/01/16 05:44:14;;;;;;;0.93;0.22;;;;;;;;;;5017797;28;20428;-63
2024/01/16 05:46:40;;;;;;;3.85;0.63;;;;;;;;;;5023079;28;20099;-64
2024/01/16 05:49:06;;;;;;;0.20;0.15;;;;;;;;;;5038809;28;20624;-64
2024/01/16 05:51:32;;;;;;;1.60;0.20;;;;;;;;;;5038436;28;20051;-64
2024/01/16 05:53:57;;;;;;;0.35;0.10;;;;;;;;;;5033216;28;20082;-63
2024/01/16 05:56:24;;;;;;;1.90;0.35;;;;;;;;;;5033883;28;20045;-63
2024/01/16 05:58:49;;;;;;;0.45;0.20;;;;;;;;;;5035302;28;20045;-63
2024/01/16 06:01:16;;;;;;;1.30;0.32;;;;;;;;;;5029876;28;20092;-63
2024/01/16 06:03:43;;;;;;;0.98;0.20;;;;;;;;;;5017270;28;20044;-63
2024/01/16 06:06:09;;;;;;;0.93;0.22;;;;;;;;;;5040301;28;20044;-63
2024/01/16 06:08:35;;;;;;;3.30;0.30;;;;;;;;;;5021069;28;20045;-63
2024/01/16 06:11:01;;;;;;;3.15;0.40;;;;;;;;;;5036261;28;20057;-63
2024/01/16 06:13:28;;;;;;;1.05;0.10;;;;;;;;;;5036983;28;20120;-63
2024/01/16 06:15:54;;;;;;;4.15;0.40;;;;;;;;;;5035521;28;20128;-63
2024/01/16 06:18:20;;;;;;;1.05;0.63;;;;;;;;;;5038481;28;20132;-63
2024/01/16 06:20:46;;;;;;;0.57;0.10;;;;;;;;;;5030128;28;20071;-63
2024/01/16 06:23:12;;;;;;;1.25;0.10;;;;;;;;;;5034702;28;20060;-63
2024/01/16 06:25:38;;;;;;;0.40;0.20;;;;;;;;;;5035031;28;20049;-64
2024/01/16 06:28:05;;;;;;;2.45;0.28;;;;;;;;;;5038727;28;20049;-63
2024/01/16 06:30:31;;;;;;;0.95;0.17;;;;;;;;;;5032732;28;20049;-63
2024/01/16 06:32:57;;;;;;;0.30;0.30;;;;;;;;;;5036122;28;20095;-63
2024/01/16 06:35:23;;;;;;;0.50;0.10;;;;;;;;;;5036290;28;20399;-63
2024/01/16 06:37:49;;;;;;;0.50;0.15;;;;;;;;;;5043453;28;20033;-61
2024/01/16 06:40:15;;;;;;;0.22;0.10;;;;;;;;;;5042719;28;20041;-59
2024/01/16 06:42:42;;;;;;;1.17;0.20;;;;;;;;;;5038652;28;20041;-61
2024/01/16 06:45:08;;;;;;;1.63;0.45;;;;;;;;;;5046190;28;20040;-61
2024/01/16 06:47:34;;;;;;;1.13;0.28;;;;;;;;;;5047200;28;20048;-61
2024/01/16 06:50:00;;;;;;;0.88;0.30;;;;;;;;;;5048012;28;20037;-62
2024/01/16 06:52:26;;;;;;;0.80;0.30;;;;;;;;;;5045324;28;20040;-61
2024/01/16 06:54:52;;;;;;;0.43;0.15;;;;;;;;;;5042537;28;20099;-62
2024/01/16 06:57:18;;;;;;;1.20;0.35;;;;;;;;;;5047392;28;20041;-61
2024/01/16 06:59:44;;;;;;;0.80;0.20;;;;;;;;;;5033392;28;20486;-61
2024/01/16 07:02:10;;;;;;;0.13;0.10;;;;;;;;;;5042471;28;20086;-57
2024/01/16 07:04:36;;;;;;;0.57;0.13;;;;;;;;;;5041765;28;20078;-60
2024/01/16 07:07:02;;;;;;;0.25;0.10;;;;;;;;;;5032844;28;20127;-61
2024/01/16 07:09:29;;;;;;;0.60;0.17;;;;;;;;;;5020605;28;20052;-61
2024/01/16 07:11:55;;;;;;;0.25;0.13;;;;;;;;;;5039992;28;20087;-62
2024/01/16 07:14:21;;;;;;;0.55;0.17;;;;;;;;;;5038650;28;20316;-61
2024/01/16 07:16:47;;;;;;;1.55;0.10;;;;;;;;;;5037664;28;20481;-61
2024/01/16 07:19:13;;;;;;;0.75;0.20;;;;;;;;;;5036871;28;20037;-60
2024/01/16 07:21:39;;;;;;;0.22;0.10;;;;;;;;;;5040192;28;20590;-61
2024/01/16 07:24:05;;;;;;;0.35;0.10;;;;;;;;;;5025823;28;20129;-59
2024/01/16 07:26:31;;;;;;;0.10;0.10;;;;;;;;;;5038296;28;20057;-60
2024/01/16 07:28:57;;;;;;;0.00;0.00;;;;;;;;;;5036622;28;20030;-60
2024/01/16 07:31:24;;;;;;;0.00;0.00;;;;;;;;;;5033296;28;20048;-60
2024/01/16 07:33:50;;;;;;;0.20;0.10;;;;;;;;;;5031571;28;20124;-62
2024/01/16 07:36:16;;;;;;;0.20;0.10;;;;;;;;;;5035028;28;20116;-61
2024/01/16 07:38:42;;;;;;;0.05;0.00;;;;;;;;;;5038628;28;20502;-60
2024/01/16 07:41:08;;;;;;;0.10;0.10;;;;;;;;;;5035961;28;20033;-60
2024/01/16 07:43:35;;;;;;;0.08;0.08;;;;;;;;;;5040399;28;20490;-61
2024/01/16 07:46:01;;;;;;;0.30;0.10;;;;;;;;;;5040066;28;20045;-61
2024/01/16 07:48:27;;;;;;;0.55;0.03;;;;;;;;;;5033291;28;20056;-60
2024/01/16 07:50:53;;;;;;;0.13;0.00;;;;;;;;;;5030447;28;20128;-60
2024/01/16 07:53:19;;;;;;;0.55;0.10;;;;;;;;;;5033113;28;20254;-60
2024/01/16 07:55:45;;;;;;;0.00;0.00;;;;;;;;;;5039124;28;20048;-60
2024/01/16 07:58:12;;;;;;;1.92;0.20;;;;;;;;;;5022124;28;20547;-62
2024/01/16 08:00:38;;;;;;;1.40;0.20;;;;;;;;;;5038854;28;20048;-63
2024/01/16 08:03:04;;;;;;;1.65;0.20;;;;;;;;;;5038304;28;20140;-63
2024/01/16 08:05:30;;;;;;;0.20;0.20;;;;;;;;;;5021421;28;20033;-62
2024/01/16 08:07:56;;;;;;;1.45;0.20;;;;;;;;;;5034040;28;20040;-61
2024/01/16 08:10:22;;;;;;;2.10;0.20;;;;;;;;;;5038273;28;20481;-59
2024/01/16 08:12:48;;;;;;;1.05;0.17;;;;;;;;;;5012830;28;20053;-62
2024/01/16 08:15:14;;;;;;;1.42;0.30;;;;;;;;;;5015985;28;20098;-63
2024/01/16 08:17:41;;;;;;;0.82;0.20;;;;;;;;;;5019035;28;20140;-62
2024/01/16 08:20:09;;;;;;;0.57;0.20;;;;;;;;;;5034697;28;20041;-63
2024/01/16 08:22:36;;;;;;;0.57;0.25;;;;;;;;;;5017616;28;20095;-61
2024/01/16 08:25:02;;;;;;;3.75;0.43;;;;;;;;;;5032362;28;20041;-62
2024/01/16 08:27:29;;;;;;;2.65;0.52;;;;;;;;;;5036780;28;20075;-63
2024/01/16 08:29:55;;;;;;;1.63;0.65;;;;;;;;;;5036843;28;20124;-62
2024/01/16 08:32:21;;;;;;;3.40;0.65;;;;;;;;;;5037960;28;20306;-62
2024/01/16 08:34:47;;;;;;;6.03;0.65;;;;;;;;;;5038093;28;20037;-61
2024/01/16 08:37:13;;;;;;;1.73;0.55;;;;;;;;;;5033436;28;20052;-60
2024/01/16 08:39:39;;;;;;;1.38;0.47;;;;;;;;;;5033664;28;20398;-61
2024/01/16 08:42:05;;;;;;;8.05;1.48;;;;;;;;;;5026993;28;20076;-62
2024/01/16 08:44:31;;;;;;;2.55;0.93;;;;;;;;;;5011334;28;20080;-62
2024/01/16 08:46:59;;;;;;;1.27;0.63;;;;;;;;;;5026529;28;20510;-63
2024/01/16 08:49:25;;;;;;;0.75;0.45;;;;;;;;;;5009709;28;20056;-63
2024/01/16 08:51:51;;;;;;;0.82;0.30;;;;;;;;;;5035359;28;20057;-62
2024/01/16 08:54:17;;;;;;;3.75;0.55;;;;;;;;;;5039109;28;20135;-62
2024/01/16 08:56:43;;;;;;;0.90;0.50;;;;;;;;;;5040631;28;20124;-61
2024/01/16 08:59:10;;;;;;;0.82;0.20;;;;;;;;;;5042687;28;20446;-60
2024/01/16 09:01:36;;;;;;;0.85;0.30;;;;;;;;;;5042326;28;20553;-61
2024/01/16 09:04:02;;;;;;;0.47;0.30;;;;;;;;;;5040023;28;20051;-62
2024/01/16 09:06:28;;;;;;;3.38;0.50;;;;;;;;;;5044104;28;20124;-62
2024/01/16 09:08:54;;;;;;;1.33;0.40;;;;;;;;;;5041771;28;20132;-62
2024/01/16 09:11:20;;;;;;;1.75;0.47;;;;;;;;;;5043515;28;20320;-62
2024/01/16 09:13:46;;;;;;;0.90;0.40;;;;;;;;;;5041780;28;20059;-60
2024/01/16 09:16:12;;;;;;;3.17;0.30;;;;;;;;;;5042443;28;20437;-60
2024/01/16 09:18:38;;;;;;;2.50;0.55;;;;;;;;;;5042529;28;20045;-60
2024/01/16 09:21:04;;;;;;;0.55;0.30;;;;;;;;;;5042787;28;20080;-60
2024/01/16 09:23:30;;;;;;;1.85;0.30;;;;;;;;;;5012865;28;20048;-62
2024/01/16 09:25:56;;;;;;;0.68;0.40;;;;;;;;;;5031304;28;20047;-61
2024/01/16 09:28:22;;;;;;;2.70;0.40;;;;;;;;;;5018733;28;20037;-61
2024/01/16 09:30:48;;;;;;;1.77;0.35;;;;;;;;;;5032922;28;20399;-61
2024/01/16 09:33:16;;;;;;;1.00;0.57;;;;;;;;;;5033486;28;20492;-61
2024/01/16 09:35:42;;;;;;;1.15;0.40;;;;;;;;;;5035174;28;20038;-62
2024/01/16 09:38:08;;;;;;;1.50;0.40;;;;;;;;;;5034279;28;20088;-61
2024/01/16 09:40:35;;;;;;;1.85;0.30;;;;;;;;;;5033606;28;20049;-62
2024/01/16 09:43:01;;;;;;;1.77;0.30;;;;;;;;;;5030560;28;20431;-61
2024/01/16 09:45:28;;;;;;;2.05;0.40;;;;;;;;;;5031610;28;20041;-62
2024/01/16 09:47:54;;;;;;;1.83;0.32;;;;;;;;;;5036128;28;20065;-61
2024/01/16 09:50:20;;;;;;;1.35;0.50;;;;;;;;;;5041901;28;20036;-61
2024/01/16 09:52:47;;;;;;;1.92;0.40;;;;;;;;;;5033313;28;20045;-62
2024/01/16 09:55:13;;;;;;;1.30;0.35;;;;;;;;;;5033641;28;20056;-62
2024/01/16 09:57:40;;;;;;;0.77;0.55;;;;;;;;;;5011095;28;20127;-62
2024/01/16 10:00:13;;;;;;;1.00;0.40;;;;;;;;;;5035616;28;20052;-61
2024/01/16 10:02:42;;;;;;;0.85;0.43;;;;;;;;;;5035591;28;20051;-61
2024/01/16 10:05:12;;;;;;;0.47;0.32;;;;;;;;;;5024019;28;20123;-61
2024/01/16 10:07:39;;;;;;;2.15;0.40;;;;;;;;;;5034811;28;20498;-61
2024/01/16 10:10:05;;;;;;;3.00;0.60;;;;;;;;;;5035345;28;20056;-61
2024/01/16 10:12:31;;;;;;;0.60;0.40;;;;;;;;;;5036262;28;20087;-61
2024/01/16 10:14:57;;;;;;;0.30;0.20;;;;;;;;;;5035469;28;20549;-61
2024/01/16 10:17:35;;;;;;;1.23;0.30;;;;;;;;;;5037506;28;20044;-62
2024/01/16 10:20:04;;;;;;;2.50;0.32;;;;;;;;;;5032579;28;20506;-61
2024/01/16 10:22:30;;;;;;;0.95;0.40;;;;;;;;;;5035922;28;20131;-61
2024/01/16 10:25:10;;;;;;;0.60;0.20;;;;;;;;;;5035306;28;20060;-61
2024/01/16 10:27:36;;;;;;;0.63;0.22;;;;;;;;;;5034808;28;20079;-62
2024/01/16 10:30:04;;;;;;;1.23;0.20;;;;;;;;;;5020194;28;20044;-61
2024/01/16 10:32:29;;;;;;;1.73;0.32;;;;;;;;;;5029869;28;20052;-61
2024/01/16 10:35:10;;;;;;;2.58;1.48;;;;;;;;;;5030794;28;20052;-61
2024/01/16 10:37:49;;;;;;;1.92;0.30;;;;;;;;;;5036905;28;20037;-61
2024/01/16 10:40:19;;;;;;;1.38;0.25;;;;;;;;;;5032846;28;20040;-62
2024/01/16 10:42:46;;;;;;;0.98;0.40;;;;;;;;;;5032498;28;20072;-61
2024/01/16 10:45:19;;;;;;;1.00;0.40;;;;;;;;;;5016081;28;20550;-62
2024/01/16 10:47:48;;;;;;;1.25;0.55;;;;;;;;;;5013244;28;20083;-62
2024/01/16 10:50:15;;;;;;;1.90;0.50;;;;;;;;;;5033973;28;20041;-61
2024/01/16 10:52:51;;;;;;;0.98;0.68;;;;;;;;;;5032889;28;20049;-60
2024/01/16 10:55:22;;;;;;;1.02;0.30;;;;;;;;;;5033627;28;20032;-62
2024/01/16 10:57:49;;;;;;;0.60;0.40;;;;;;;;;;5037318;28;20092;-62
2024/01/16 11:00:18;;;;;;;1.42;0.50;;;;;;;;;;5034900;28;20140;-61
2024/01/16 11:02:48;;;;;;;0.82;0.52;;;;;;;;;;5032892;28;20073;-62
2024/01/16 11:05:15;;;;;;;0.60;0.30;;;;;;;;;;5015507;28;20090;-62
2024/01/16 11:07:42;;;;;;;1.05;0.95;;;;;;;;;;5031184;28;20049;-62
2024/01/16 11:10:09;;;;;;;0.55;0.50;;;;;;;;;;5035371;28;20060;-61
2024/01/16 11:12:36;;;;;;;2.00;1.10;;;;;;;;;;5016120;28;20060;-61
2024/01/16 11:15:07;;;;;;;1.98;1.15;;;;;;;;;;5035555;28;20052;-62
2024/01/16 11:17:34;;;;;;;4.68;1.70;;;;;;;;;;5031621;28;20050;-61
2024/01/16 11:20:01;;;;;;;4.43;1.38;;;;;;;;;;5033014;28;20048;-61
2024/01/16 11:22:28;;;;;;;1.80;1.20;;;;;;;;;;5032191;28;20041;-62
2024/01/16 11:25:10;;;;;;;1.45;1.23;;;;;;;;;;5030115;28;20053;-61
2024/01/16 11:27:39;;;;;;;3.80;1.15;;;;;;;;;;5030946;28;20040;-61
2024/01/16 11:30:07;;;;;;;2.28;1.40;;;;;;;;;;5033234;28;20053;-62
2024/01/16 11:32:34;;;;;;;1.27;1.00;;;;;;;;;;5035291;28;20138;-61
2024/01/16 11:35:00;;;;;;;1.55;1.38;;;;;;;;;;5036025;28;20056;-61
2024/01/16 11:37:31;;;;;;;2.67;1.17;;;;;;;;;;5038547;28;20092;-62
2024/01/16 11:40:16;;;;;;;1.58;0.93;;;;;;;;;;5020551;28;20049;-61
2024/01/16 11:42:43;;;;;;;1.88;0.88;;;;;;;;;;5035185;28;20406;-62
2024/01/16 11:45:09;;;;;;;2.20;1.30;;;;;;;;;;5031364;28;20041;-61
2024/01/16 11:47:35;;;;;;;0.80;0.80;;;;;;;;;;5038359;28;20214;-61
2024/01/16 11:50:11;;;;;;;5.50;1.50;;;;;;;;;;5037601;28;20044;-61
2024/01/16 11:52:44;;;;;;;2.05;1.10;;;;;;;;;;5035531;28;20048;-61
2024/01/16 11:55:30;;;;;;;2.03;1.08;;;;;;;;;;5036517;28;20037;-61
2024/01/16 11:58:08;;;;;;;2.55;1.20;;;;;;;;;;5035028;28;20119;-61
2024/01/16 12:00:36;;;;;;;1.58;0.93;;;;;;;;;;5036800;28;20125;-61
2024/01/16 12:03:03;;;;;;;2.08;0.93;;;;;;;;;;5032248;28;20041;-61
2024/01/16 12:05:29;;;;;;;2.03;1.00;;;;;;;;;;5034563;28;20112;-61
2024/01/16 12:07:55;;;;;;;2.33;0.93;;;;;;;;;;5034271;28;20037;-61
2024/01/16 12:10:25;;;;;;;1.80;1.10;;;;;;;;;;5034292;28;20049;-59
2024/01/16 12:12:51;;;;;;;2.22;1.30;;;;;;;;;;5036563;28;20048;-62
2024/01/16 12:15:18;;;;;;;2.83;1.05;;;;;;;;;;5039208;28;20425;-61
2024/01/16 12:17:54;;;;;;;1.58;0.93;;;;;;;;;;5039495;28;20508;-61
2024/01/16 12:20:21;;;;;;;2.60;1.10;;;;;;;;;;5038018;28;20135;-61
2024/01/16 12:22:52;;;;;;;1.02;0.80;;;;;;;;;;5037482;28;20056;-60
2024/01/16 12:25:21;;;;;;;4.03;1.05;;;;;;;;;;5041522;28;20406;-61
2024/01/16 12:27:47;;;;;;;4.22;1.02;;;;;;;;;;5040029;28;20350;-60
2024/01/16 12:30:14;;;;;;;2.17;1.02;;;;;;;;;;5041496;28;20095;-61
2024/01/16 12:32:40;;;;;;;2.63;0.85;;;;;;;;;;5037121;28;20140;-61
2024/01/16 12:35:07;;;;;;;1.13;0.95;;;;;;;;;;5037367;28;20052;-61
2024/01/16 12:37:33;;;;;;;2.33;0.93;;;;;;;;;;5041235;28;20055;-61
2024/01/16 12:39:59;;;;;;;1.15;0.80;;;;;;;;;;5033691;28;20045;-61
2024/01/16 12:42:25;;;;;;;2.35;0.85;;;;;;;;;;5036480;28;20502;-61
2024/01/16 12:44:51;;;;;;;0.95;0.85;;;;;;;;;;5036368;28;20040;-61
2024/01/16 12:47:19;;;;;;;1.02;0.90;;;;;;;;;;5040621;28;20037;-62
2024/01/16 12:49:45;;;;;;;1.95;0.90;;;;;;;;;;5041037;28;20044;-61
2024/01/16 12:52:20;;;;;;;2.65;1.80;;;;;;;;;;5036847;28;20046;-62
2024/01/16 12:54:46;;;;;;;;;;;;;;;;;;5026940;28;20053;-62
2024/01/16 12:57:17;;;;;;;1.30;0.80;;;;;;;;;;5031205;28;19963;-62
2024/01/16 12:59:43;;;;;;;1.65;1.20;;;;;;;;;;5030215;28;20060;-61
2024/01/16 13:02:11;;;;;;;2.13;1.40;;;;;;;;;;5039040;28;20045;-62
2024/01/16 13:04:37;;;;;;;2.17;1.80;;;;;;;;;;5037924;28;20481;-61
2024/01/16 13:07:03;;;;;;;3.97;1.98;;;;;;;;;;5040545;28;20094;-61
2024/01/16 13:09:29;;;;;;;2.53;1.65;;;;;;;;;;5038766;28;20128;-62
2024/01/16 13:11:58;;;;;;;3.25;1.92;;;;;;;;;;5034012;28;20045;-61
2024/01/16 13:14:24;;;;;;;2.88;1.98;;;;;;;;;;5036565;28;20071;-61
2024/01/16 13:16:50;;;;;;;2.13;1.85;;;;;;;;;;5040088;28;20041;-62
2024/01/16 13:19:17;;;;;;;2.80;2.08;;;;;;;;;;5039812;28;20582;-61
2024/01/16 13:21:43;;;;;;;3.47;2.10;;;;;;;;;;5038254;28;20037;-62
2024/01/16 13:24:10;;;;;;;5.72;2.35;;;;;;;;;;5028334;28;20336;-61
2024/01/16 13:26:37;;;;;;;4.10;2.65;;;;;;;;;;5036806;28;20048;-61
2024/01/16 13:29:03;;;;;;;1.73;1.60;;;;;;;;;;5032472;28;20738;-62
2024/01/16 13:31:29;;;;;;;3.85;1.90;;;;;;;;;;5042970;28;20124;-61
2024/01/16 13:33:56;;;;;;;2.50;2.03;;;;;;;;;;5044213;28;20090;-61
2024/01/16 13:36:22;;;;;;;4.03;2.60;;;;;;;;;;5042882;28;20041;-61
2024/01/16 13:38:48;;;;;;;3.33;2.15;;;;;;;;;;5043127;28;20451;-60
2024/01/16 13:41:15;;;;;;;3.47;2.15;;;;;;;;;;5045439;28;20046;-61
2024/01/16 13:43:41;;;;;;;4.97;2.35;;;;;;;;;;5045971;28;20550;-61
2024/01/16 13:46:10;;;;;;;5.30;3.28;;;;;;;;;;5046467;28;20090;-61
2024/01/16 13:48:36;;;;;;;3.22;2.28;;;;;;;;;;5046588;28;20456;-61
2024/01/16 13:51:04;;;;;;;5.35;2.40;;;;;;;;;;5045954;28;20054;-60
2024/01/16 13:53:30;;;;;;;3.83;2.67;;;;;;;;;;5031766;28;20438;-61
2024/01/16 13:55:58;;;;;;;3.22;2.47;;;;;;;;;;5043836;28;20064;-61
2024/01/16 13:58:24;;;;;;;3.38;1.98;;;;;;;;;;5047118;28;20041;-62
2024/01/16 14:00:51;;;;;;;2.70;2.30;;;;;;;;;;5047939;28;20076;-61
2024/01/16 14:03:17;;;;;;;4.45;2.03;;;;;;;;;;5047575;28;20154;-61
2024/01/16 14:05:43;;;;;;;2.13;1.92;;;;;;;;;;5047542;28;20511;-61
2024/01/16 14:08:12;;;;;;;4.35;2.25;;;;;;;;;;5047641;28;20446;-61
2024/01/16 14:10:38;;;;;;;3.65;2.03;;;;;;;;;;5039715;28;20053;-61
2024/01/16 14:13:04;;;;;;;3.55;2.38;;;;;;;;;;5034630;28;20085;-61
2024/01/16 14:15:30;;;;;;;4.43;2.30;;;;;;;;;;5046879;28;20056;-60
2024/01/16 14:17:57;;;;;;;3.53;2.00;;;;;;;;;;5043268;28;20055;-61
2024/01/16 14:20:25;;;;;;;3.75;1.80;;;;;;;;;;5040455;28;20314;-61
2024/01/16 14:22:52;;;;;;;2.50;2.20;;;;;;;;;;5041487;28;20089;-61
2024/01/16 14:25:18;;;;;;;3.80;2.00;;;;;;;;;;5046950;28;20033;-61
2024/01/16 14:28:03;;;;;;;2.58;2.00;;;;;;;;;;5044237;28;20068;-62
2024/01/16 14:30:29;;;;;;;3.13;1.88;;;;;;;;;;5035985;28;20486;-61
2024/01/16 14:32:58;;;;;;;3.45;1.85;;;;;;;;;;5045742;28;20049;-61
2024/01/16 14:35:24;;;;;;;3.22;1.83;;;;;;;;;;5047040;28;20033;-61
2024/01/16 14:37:51;;;;;;;5.03;1.95;;;;;;;;;;5041595;28;20506;-61
2024/01/16 14:40:27;;;;;;;2.58;1.80;;;;;;;;;;5038230;28;20034;-61
2024/01/16 14:42:54;;;;;;;2.97;1.50;;;;;;;;;;5041904;28;20077;-62